ボードー の空港の天気 - METARとTAF

Bodo Vi ( ENBO / BOO ) - ノルウェー ヌールラン県ボードー
飛行場実況気象(Metar)
観測時間04/25 08:20 CEST (04/25 06:20 UTC)
風向・風速東 2m/s
視程10km以上
天気現象
少しの雲 雲底高度 460m
全天の8割程度の雲 雲底高度 1220m
気温6℃
湿度81%
気圧986hPa
METARENBO 250620Z 08004KT 060V120 9999 FEW015 BKN040 06/03 Q0986 NOSIG
過去の天気等 Google飛行場航空写真 Wunderground天気予報

過去48時間のMETAR

飛行場予報(TAF)
発表時間: -
25日12時 CEST ~ 25日14時 CEST に徐々に
風向・風速西南西 6m/s
25日23時 CEST ~ 26日8時 CEST に一時的に
風向・風速西南西 13m/s
天気現象しゅう雨
全天の8割程度の積乱雲 雲底高度 430m
ENBO 2506/2606 09008KT 9999 -SHRA FEW015TCU BKN030
BECMG 2510/2512 24012KT
TEMPO 2521/2606 25025KT SHRA BKN014CB